createdAt,value
2022-09-17T05:36:26.414Z,6.17
2022-09-17T05:39:40.056Z,5.63
2022-09-17T05:42:50.236Z,6.27
2022-09-17T05:46:02.520Z,5.90
2022-09-17T05:49:12.036Z,5.73
2022-09-17T05:52:22.795Z,6.03
2022-09-17T05:55:32.507Z,5.80
2022-09-17T05:58:42.031Z,6.50
2022-09-17T06:01:53.734Z,7.07
2022-09-17T06:05:03.861Z,3.77
2022-09-17T06:08:14.577Z,7.63
2022-09-17T06:11:24.196Z,9.10
2022-09-17T06:14:33.778Z,5.53
2022-09-17T06:17:43.421Z,5.27
2022-09-17T06:20:55.819Z,6.60
2022-09-17T06:24:06.630Z,6.50
2022-09-17T06:27:18.852Z,7.37
2022-09-17T06:30:28.483Z,6.73
2022-09-17T06:33:37.993Z,6.03
2022-09-17T06:36:49.211Z,7.43
2022-09-17T06:40:00.905Z,4.57
2022-09-17T06:43:10.503Z,7.00
2022-09-17T06:46:22.486Z,6.60
2022-09-17T06:49:32.033Z,10.87
2022-09-17T06:52:48.843Z,5.93
2022-09-17T06:56:05.870Z,5.33
2022-09-17T06:59:16.106Z,3.33
2022-09-17T07:02:25.814Z,4.90
2022-09-17T07:05:35.314Z,6.67
2022-09-17T07:08:44.930Z,6.40
2022-09-17T07:11:58.490Z,4.43
2022-09-17T07:15:10.472Z,4.77
2022-09-17T07:18:20.023Z,8.20
2022-09-17T07:21:29.646Z,3.97
2022-09-17T07:24:39.141Z,6.23
2022-09-17T07:27:49.832Z,6.83
2022-09-17T07:30:59.372Z,6.03
2022-09-17T07:34:08.994Z,4.13
2022-09-17T07:37:20.256Z,3.63
2022-09-17T07:40:29.890Z,6.23
2022-09-17T07:43:52.817Z,6.93
2022-09-17T07:47:03.692Z,6.37
2022-09-17T07:50:13.221Z,6.27
2022-09-17T07:53:23.743Z,5.20
2022-09-17T07:56:33.317Z,8.03
2022-09-17T07:59:42.774Z,5.30
2022-09-17T08:02:55.746Z,5.53
2022-09-17T08:06:06.723Z,4.00
2022-09-17T08:09:18.478Z,7.77
2022-09-17T08:12:28.025Z,4.50
2022-09-17T08:15:37.503Z,6.23
2022-09-17T08:18:49.548Z,4.80
2022-09-17T08:21:59.227Z,8.03
2022-09-17T08:25:10.645Z,3.10
2022-09-17T08:28:20.177Z,4.53
2022-09-17T08:31:30.624Z,4.63
2022-09-17T08:34:41.462Z,5.73
2022-09-17T08:37:51.953Z,5.53
2022-09-17T08:41:12.581Z,4.23
2022-09-17T08:44:26.807Z,3.47
2022-09-17T08:47:40.849Z,5.00
2022-09-17T08:50:51.980Z,5.37
2022-09-17T08:54:08.794Z,6.10
2022-09-17T08:57:35.374Z,4.43
2022-09-17T09:01:04.874Z,3.37
2022-09-17T09:04:34.969Z,6.73
2022-09-17T09:07:51.656Z,4.83
2022-09-17T09:11:03.805Z,4.83
2022-09-17T09:14:20.991Z,5.13
2022-09-17T09:17:35.976Z,3.93
2022-09-17T09:20:51.632Z,3.83
2022-09-17T09:24:11.522Z,4.33
2022-09-17T09:27:28.269Z,3.40
2022-09-17T09:30:53.447Z,5.13
2022-09-17T09:34:04.574Z,3.87
2022-09-17T09:37:20.955Z,4.17
2022-09-17T09:40:37.886Z,5.60
2022-09-17T09:44:05.377Z,3.97
2022-09-17T09:47:33.488Z,5.40
2022-09-17T09:51:07.049Z,6.83
2022-09-17T09:54:32.116Z,4.40
2022-09-17T09:57:45.462Z,5.50
2022-09-17T10:00:54.987Z,4.10
2022-09-17T10:04:17.995Z,5.43
2022-09-17T10:07:27.526Z,4.83
2022-09-17T10:10:38.589Z,6.30
2022-09-17T10:13:49.979Z,5.17
2022-09-17T10:17:16.352Z,4.37
2022-09-17T10:20:26.061Z,3.67
2022-09-17T10:23:39.375Z,2.60
2022-09-17T10:26:49.136Z,3.73
2022-09-17T10:30:14.812Z,3.33
2022-09-17T10:33:27.510Z,2.47
2022-09-17T10:36:41.267Z,2.53
2022-09-17T10:39:50.848Z,2.50
2022-09-17T10:43:19.317Z,3.40
2022-09-17T10:46:33.809Z,2.83
2022-09-17T10:49:47.636Z,3.20
2022-09-17T10:53:01.143Z,3.47
2022-09-17T10:56:20.981Z,4.87
2022-09-17T10:59:54.118Z,2.77
2022-09-17T11:03:25.309Z,2.97
2022-09-17T11:06:59.592Z,2.37
2022-09-17T11:10:14.645Z,3.10
2022-09-17T11:13:33.863Z,3.93
2022-09-17T11:16:52.933Z,2.60
2022-09-17T11:20:21.244Z,4.13
2022-09-17T11:23:52.779Z,3.93
2022-09-17T11:27:14.602Z,3.73
2022-09-17T11:30:27.100Z,3.27
2022-09-17T11:33:57.476Z,2.93
2022-09-17T11:37:14.343Z,3.30
2022-09-17T11:40:39.380Z,4.03
2022-09-17T11:44:08.627Z,3.30
2022-09-17T11:47:25.417Z,3.47
2022-09-17T11:50:41.809Z,3.73
2022-09-17T11:53:58.214Z,5.37
2022-09-17T11:57:15.001Z,2.90
2022-09-17T12:00:24.777Z,3.77
2022-09-17T12:03:42.171Z,3.67
2022-09-17T12:07:01.082Z,3.00
2022-09-17T12:10:27.062Z,2.20
2022-09-17T12:13:41.623Z,3.77
2022-09-17T12:16:58.576Z,3.30
2022-09-17T12:20:23.791Z,3.77
2022-09-17T12:23:39.926Z,3.13
2022-09-17T12:26:59.829Z,3.93
2022-09-17T12:30:14.154Z,2.43
2022-09-17T12:33:33.986Z,4.00
2022-09-17T12:36:52.984Z,4.03
2022-09-17T12:40:15.160Z,2.50
2022-09-17T12:43:43.387Z,3.23
2022-09-17T12:47:08.889Z,2.43
2022-09-17T12:50:25.479Z,4.17
2022-09-17T12:53:41.072Z,2.23
2022-09-17T12:56:59.506Z,2.67
2022-09-17T13:00:13.737Z,2.17
2022-09-17T13:03:28.516Z,1.33
2022-09-17T13:06:59.730Z,3.60
2022-09-17T13:10:34.046Z,1.90
2022-09-17T13:13:51.164Z,2.30
2022-09-17T13:17:06.177Z,2.90
2022-09-17T13:20:22.590Z,1.67
2022-09-17T13:23:40.267Z,1.53
2022-09-17T13:26:50.279Z,1.60
2022-09-17T13:30:02.168Z,1.80
2022-09-17T13:33:13.372Z,1.07
2022-09-17T13:36:38.032Z,0.97
2022-09-17T13:39:49.862Z,0.83
2022-09-17T13:43:08.320Z,1.93
2022-09-17T13:46:24.001Z,1.80
2022-09-17T13:49:34.899Z,1.47
2022-09-17T13:52:47.814Z,0.77
2022-09-17T13:56:00.975Z,1.33
2022-09-17T13:59:21.457Z,1.27
2022-09-17T14:02:35.127Z,1.57
2022-09-17T14:05:46.060Z,1.60
2022-09-17T14:08:57.712Z,1.90
2022-09-17T14:12:34.224Z,1.20
2022-09-17T14:16:01.088Z,1.07
2022-09-17T14:19:25.107Z,2.57
2022-09-17T14:22:36.010Z,2.70
2022-09-17T14:25:50.800Z,2.23
2022-09-17T14:29:06.923Z,2.03
2022-09-17T14:32:21.198Z,1.57
2022-09-17T14:35:37.546Z,1.00
2022-09-17T14:38:52.523Z,1.70
2022-09-17T14:42:06.363Z,1.33
2022-09-17T14:45:20.672Z,3.53
2022-09-17T14:48:32.895Z,5.97
2022-09-17T14:51:50.073Z,0.90
2022-09-17T14:55:16.419Z,3.37
2022-09-17T14:58:34.737Z,2.10
2022-09-17T15:01:48.703Z,1.57
2022-09-17T15:04:58.919Z,0.93
2022-09-17T15:08:15.504Z,2.43
2022-09-17T15:11:26.453Z,2.67
2022-09-17T15:14:40.262Z,1.43
2022-09-17T15:17:51.115Z,2.07
2022-09-17T15:21:04.193Z,0.70
2022-09-17T15:24:22.423Z,1.77
2022-09-17T15:27:36.531Z,1.00
2022-09-17T15:30:46.789Z,1.77
2022-09-17T15:33:59.592Z,1.00
2022-09-17T15:37:20.220Z,2.10
2022-09-17T15:40:32.735Z,1.40
2022-09-17T15:43:45.946Z,1.63
2022-09-17T15:46:56.886Z,1.20
2022-09-17T15:50:21.661Z,1.87
2022-09-17T15:53:35.329Z,1.87
2022-09-17T15:56:47.365Z,1.53
2022-09-17T16:00:08.171Z,0.97
2022-09-17T16:04:05.401Z,1.97
2022-09-17T16:07:28.723Z,1.13
2022-09-17T16:10:44.274Z,1.40
2022-09-17T16:13:56.878Z,1.97
2022-09-17T16:17:22.291Z,2.97
2022-09-17T16:20:31.876Z,1.33
2022-09-17T16:23:44.696Z,1.03
2022-09-17T16:26:54.220Z,2.67
2022-09-17T16:30:11.941Z,1.00
2022-09-17T16:33:22.869Z,0.80
2022-09-17T16:36:32.913Z,1.33
2022-09-17T16:39:42.796Z,1.50
2022-09-17T16:42:52.468Z,2.50
2022-09-17T16:46:03.213Z,1.67
2022-09-17T16:49:15.320Z,1.33
2022-09-17T16:52:27.173Z,0.93
2022-09-17T16:55:37.526Z,5.77
2022-09-17T16:58:47.466Z,1.57
2022-09-17T17:01:57.200Z,2.20
2022-09-17T17:05:11.635Z,1.60
2022-09-17T17:08:22.724Z,1.03
2022-09-17T17:11:32.389Z,1.37
2022-09-17T17:14:42.043Z,1.30
2022-09-17T17:17:52.321Z,1.40
2022-09-17T17:21:09.750Z,1.40
2022-09-17T17:24:28.965Z,1.40
2022-09-17T17:27:46.199Z,2.00
2022-09-17T17:30:59.898Z,2.53
2022-09-17T17:34:14.599Z,1.97
2022-09-17T17:37:27.100Z,3.20
2022-09-17T17:40:38.914Z,2.33
2022-09-17T17:43:48.575Z,3.30
2022-09-17T17:46:58.509Z,1.60
2022-09-17T17:50:11.558Z,4.10
2022-09-17T17:53:24.748Z,1.70
2022-09-17T17:56:34.331Z,2.43
2022-09-17T17:59:43.788Z,2.70
2022-09-17T18:02:53.615Z,2.67
2022-09-17T18:06:06.303Z,4.63
2022-09-17T18:09:17.631Z,2.77
2022-09-17T18:12:32.993Z,2.43
2022-09-17T18:15:51.682Z,2.50
2022-09-17T18:19:02.977Z,0.97
2022-09-17T18:22:15.140Z,2.80
2022-09-17T18:25:28.123Z,1.93
2022-09-17T18:28:40.561Z,2.43
2022-09-17T18:31:50.335Z,2.70
2022-09-17T18:35:00.051Z,1.13
2022-09-17T18:38:09.557Z,1.50
2022-09-17T18:41:21.991Z,1.27
2022-09-17T18:44:31.580Z,2.93
2022-09-17T18:47:44.072Z,2.30
2022-09-17T18:51:05.969Z,2.50
2022-09-17T18:54:18.316Z,2.17
2022-09-17T18:57:37.214Z,3.73
2022-09-17T19:00:49.627Z,1.30
2022-09-17T19:04:00.422Z,3.63
2022-09-17T19:07:10.063Z,2.60
2022-09-17T19:10:19.817Z,3.00
2022-09-17T19:13:36.604Z,4.50
2022-09-17T19:16:56.346Z,3.50
2022-09-17T19:20:07.793Z,2.90
2022-09-17T19:23:21.744Z,4.57
2022-09-17T19:26:31.377Z,2.73
2022-09-17T19:29:42.382Z,2.37
2022-09-17T19:32:52.703Z,3.40
2022-09-17T19:36:04.047Z,1.80
2022-09-17T19:39:13.888Z,1.53
2022-09-17T19:42:23.497Z,2.27
2022-09-17T19:45:39.134Z,2.50
2022-09-17T19:48:50.609Z,2.83
2022-09-17T19:52:00.239Z,1.53
2022-09-17T19:55:13.041Z,3.33
2022-09-17T19:58:26.113Z,2.87
2022-09-17T20:01:36.978Z,3.47
2022-09-17T20:04:47.139Z,2.97
2022-09-17T20:07:56.916Z,4.03
2022-09-17T20:11:08.116Z,2.37
2022-09-17T20:14:17.964Z,2.87
2022-09-17T20:17:29.519Z,3.20
2022-09-17T20:20:39.309Z,5.37
2022-09-17T20:23:49.714Z,4.50
